createdAt,value
2018-09-08T00:02:21.247Z,97.36
2018-09-08T00:04:51.686Z,97.81
2018-09-08T00:07:25.524Z,97.88
2018-09-08T00:09:55.624Z,97.85
2018-09-08T00:12:24.265Z,97.83
2018-09-08T00:14:53.190Z,97.89
2018-09-08T00:17:27.170Z,98.18
2018-09-08T00:20:01.209Z,98.08
2018-09-08T00:22:35.094Z,98.25
2018-09-08T00:25:09.794Z,98.23
2018-09-08T00:27:42.814Z,98.48
2018-09-08T00:30:13.810Z,98.85
2018-09-08T00:32:43.171Z,98.71
2018-09-08T00:35:12.346Z,98.82
2018-09-08T00:37:41.434Z,98.93
2018-09-08T00:40:11.295Z,98.84
2018-09-08T00:42:39.902Z,98.79
2018-09-08T00:45:09.395Z,98.55
2018-09-08T00:47:38.239Z,98.13
2018-09-08T00:50:07.551Z,97.93
2018-09-08T00:52:36.438Z,97.97
2018-09-08T00:55:05.724Z,97.72
2018-09-08T00:57:34.385Z,97.59
2018-09-08T01:00:03.509Z,97.51
2018-09-08T01:02:32.617Z,97.59
2018-09-08T01:05:01.469Z,97.46
2018-09-08T01:07:30.856Z,97.69
2018-09-08T01:10:02.633Z,97.85
2018-09-08T01:12:31.981Z,98.31
2018-09-08T01:15:01.846Z,98.28
2018-09-08T01:17:30.870Z,98.26
2018-09-08T01:19:59.505Z,98.59
2018-09-08T01:22:30.703Z,98.84
2018-09-08T01:24:59.584Z,98.61
2018-09-08T01:27:28.420Z,98.55
2018-09-08T01:29:58.025Z,98.86
2018-09-08T01:32:26.704Z,98.74
2018-09-08T01:34:55.460Z,98.79
2018-09-08T01:37:24.855Z,98.68
2018-09-08T01:39:53.607Z,98.76
2018-09-08T01:42:23.265Z,99.15
2018-09-08T01:44:51.890Z,99.41
2018-09-08T01:47:20.636Z,99.82
2018-09-08T01:49:49.225Z,100.00
2018-09-08T01:52:18.051Z,100.00
2018-09-08T01:54:46.739Z,99.35
2018-09-08T01:57:15.865Z,99.19
2018-09-08T01:59:44.776Z,99.29
2018-09-08T02:02:13.696Z,99.26
2018-09-08T02:04:43.317Z,98.88
2018-09-08T02:07:13.003Z,98.79
2018-09-08T02:09:41.710Z,98.58
2018-09-08T02:12:10.610Z,98.24
2018-09-08T02:14:39.892Z,98.31
2018-09-08T02:17:09.605Z,98.47
2018-09-08T02:19:38.523Z,98.82
2018-09-08T02:22:07.822Z,98.67
2018-09-08T02:24:37.291Z,98.57
2018-09-08T02:27:06.297Z,98.52
2018-09-08T02:29:35.536Z,98.73
2018-09-08T02:32:05.320Z,98.13
2018-09-08T02:34:35.178Z,98.36
2018-09-08T02:37:05.096Z,98.55
2018-09-08T02:39:34.433Z,98.59
2018-09-08T02:42:03.626Z,98.60
2018-09-08T02:44:32.792Z,98.67
2018-09-08T02:47:04.650Z,98.66
2018-09-08T02:50:39.111Z,98.54
2018-09-08T02:53:08.711Z,98.42
2018-09-08T02:55:36.532Z,98.46
2018-09-08T02:58:04.517Z,98.20
2018-09-08T03:00:32.684Z,98.23
2018-09-08T03:03:00.109Z,98.29
2018-09-08T03:05:28.047Z,98.27
2018-09-08T03:07:55.332Z,98.34
2018-09-08T03:10:23.125Z,98.43
2018-09-08T03:12:50.415Z,98.21
2018-09-08T03:15:18.215Z,98.41
2018-09-08T03:17:45.498Z,97.71
2018-09-08T03:20:12.741Z,97.85
2018-09-08T03:22:40.027Z,98.56
2018-09-08T03:25:07.768Z,98.39
2018-09-08T03:27:35.253Z,98.38
2018-09-08T03:30:02.901Z,98.53
2018-09-08T03:32:30.167Z,99.11
2018-09-08T03:34:57.432Z,99.13
2018-09-08T03:37:24.721Z,98.99
2018-09-08T03:39:52.027Z,98.84
2018-09-08T03:42:19.312Z,98.52
2018-09-08T03:44:46.597Z,98.62
2018-09-08T03:47:13.959Z,98.61
2018-09-08T03:49:41.223Z,99.03
2018-09-08T03:52:09.141Z,99.19
2018-09-08T03:54:36.442Z,99.41
2018-09-08T03:57:03.746Z,99.34
2018-09-08T03:59:31.025Z,99.47
2018-09-08T04:01:58.384Z,99.55
2018-09-08T04:04:27.415Z,99.33
2018-09-08T04:06:57.156Z,99.54
2018-09-08T04:09:26.840Z,99.42
2018-09-08T04:11:56.131Z,99.01
2018-09-08T04:14:25.257Z,98.74
2018-09-08T04:16:54.411Z,98.64
2018-09-08T04:19:23.177Z,98.21
2018-09-08T04:21:52.221Z,98.37
2018-09-08T04:24:21.158Z,98.44
2018-09-08T04:26:50.685Z,98.52
2018-09-08T04:29:20.007Z,98.31
2018-09-08T04:31:48.662Z,98.74
2018-09-08T04:34:17.207Z,98.92
2018-09-08T04:36:46.477Z,98.88
2018-09-08T04:39:15.486Z,98.73
2018-09-08T04:41:44.736Z,98.94
2018-09-08T04:44:13.635Z,99.02
2018-09-08T04:46:43.187Z,98.76
2018-09-08T04:49:12.561Z,98.75
2018-09-08T04:51:41.521Z,98.52
2018-09-08T04:54:10.837Z,98.63
2018-09-08T04:56:40.161Z,98.55
2018-09-08T04:59:08.682Z,98.42
2018-09-08T05:01:37.690Z,98.36
2018-09-08T05:04:06.513Z,98.08
2018-09-08T05:06:35.195Z,98.22
2018-09-08T05:09:04.578Z,97.98
2018-09-08T05:11:33.421Z,98.02
2018-09-08T05:14:03.235Z,97.93
2018-09-08T05:16:32.215Z,98.04
2018-09-08T05:19:01.118Z,98.12
2018-09-08T05:21:30.593Z,98.50
2018-09-08T05:23:59.731Z,98.15
2018-09-08T05:26:28.866Z,98.26
2018-09-08T05:28:57.655Z,98.41
2018-09-08T05:31:27.353Z,98.11
2018-09-08T05:33:56.154Z,97.63
2018-09-08T05:36:25.323Z,97.40
2018-09-08T05:38:54.311Z,97.40
2018-09-08T05:41:23.101Z,97.18
2018-09-08T05:43:51.742Z,96.84
2018-09-08T05:46:21.273Z,96.24
2018-09-08T05:48:50.720Z,95.42
2018-09-08T05:51:20.129Z,95.92
2018-09-08T05:53:48.922Z,95.69
2018-09-08T05:56:18.517Z,95.34
2018-09-08T05:58:47.709Z,95.34
2018-09-08T06:01:18.019Z,95.54
2018-09-08T06:03:46.797Z,94.52
2018-09-08T06:06:15.536Z,94.29
2018-09-08T06:08:44.231Z,93.99
2018-09-08T06:11:13.099Z,93.40
2018-09-08T06:13:41.939Z,93.68
2018-09-08T06:16:11.328Z,93.27
2018-09-08T06:18:41.613Z,92.74
2018-09-08T06:21:10.858Z,92.27
2018-09-08T06:23:40.257Z,90.94
2018-09-08T06:26:09.118Z,90.29
2018-09-08T06:28:38.392Z,89.34
2018-09-08T06:31:07.712Z,87.70
2018-09-08T06:33:37.183Z,86.40
2018-09-08T06:36:08.097Z,85.51
2018-09-08T06:38:36.878Z,84.57
2018-09-08T06:41:05.625Z,84.00
2018-09-08T06:43:34.308Z,84.63
2018-09-08T06:46:03.244Z,84.07
2018-09-08T06:48:32.059Z,83.52
2018-09-08T06:51:01.308Z,82.42
2018-09-08T06:53:30.141Z,80.99
2018-09-08T06:55:58.887Z,79.30
2018-09-08T06:58:29.252Z,77.97
2018-09-08T07:00:58.353Z,75.16
2018-09-08T07:03:27.202Z,73.91
2018-09-08T07:05:56.726Z,72.37
2018-09-08T07:08:26.533Z,69.53
2018-09-08T07:10:55.461Z,69.09
2018-09-08T07:13:24.464Z,67.38
2018-09-08T07:15:54.704Z,65.18
2018-09-08T07:18:23.310Z,63.11
2018-09-08T07:20:52.037Z,58.85
2018-09-08T07:23:21.729Z,56.64
2018-09-08T07:25:50.499Z,54.98
2018-09-08T07:28:23.585Z,52.80
2018-09-08T07:30:53.730Z,51.02
2018-09-08T07:33:22.389Z,47.33
2018-09-08T07:35:51.231Z,48.10
2018-09-08T07:38:21.117Z,48.35
2018-09-08T07:40:49.882Z,47.15
2018-09-08T07:43:18.579Z,47.37
2018-09-08T07:45:48.392Z,42.53
2018-09-08T07:48:17.373Z,39.65
2018-09-08T07:50:46.734Z,38.34
2018-09-08T07:53:15.517Z,36.43
2018-09-08T07:55:44.294Z,35.08
2018-09-08T07:58:13.142Z,33.36
2018-09-08T08:00:42.509Z,32.32
2018-09-08T08:03:11.753Z,32.69
2018-09-08T08:05:41.128Z,30.82
2018-09-08T08:08:09.957Z,30.18
2018-09-08T08:10:38.689Z,28.21
2018-09-08T08:13:07.832Z,29.74
2018-09-08T08:15:36.523Z,30.55
2018-09-08T08:18:06.079Z,29.64
2018-09-08T08:20:34.938Z,27.72
2018-09-08T08:23:03.613Z,26.38
2018-09-08T08:25:33.167Z,25.43
2018-09-08T08:28:02.057Z,24.53
2018-09-08T08:30:31.300Z,23.99
2018-09-08T08:33:00.460Z,22.61
2018-09-08T08:35:29.929Z,23.00
2018-09-08T08:37:59.832Z,21.97
2018-09-08T08:40:30.117Z,21.96
2018-09-08T08:42:59.374Z,19.84
2018-09-08T08:45:28.167Z,20.75
2018-09-08T08:47:56.837Z,22.73
2018-09-08T08:51:36.337Z,21.73
2018-09-08T08:54:22.038Z,23.66
2018-09-08T08:56:50.834Z,21.64
2018-09-08T08:59:20.359Z,20.85
2018-09-08T09:01:51.297Z,22.89
2018-09-08T09:04:19.963Z,24.12
2018-09-08T09:06:48.697Z,21.65
2018-09-08T09:09:17.386Z,20.58
2018-09-08T09:11:46.557Z,18.85
2018-09-08T09:14:16.094Z,19.29
2018-09-08T09:16:45.140Z,18.20
2018-09-08T09:19:37.408Z,19.33
2018-09-08T09:22:18.570Z,19.15
2018-09-08T09:24:59.474Z,18.58
2018-09-08T09:27:29.733Z,19.38
2018-09-08T09:29:58.953Z,17.15
2018-09-08T09:32:27.820Z,17.71
2018-09-08T09:34:59.429Z,17.65
2018-09-08T09:37:28.496Z,19.07
2018-09-08T09:40:02.238Z,17.62
2018-09-08T09:42:30.933Z,17.45
2018-09-08T09:45:00.299Z,16.94
2018-09-08T09:47:30.398Z,17.20
2018-09-08T09:49:59.711Z,18.21
2018-09-08T09:52:28.609Z,17.16
2018-09-08T09:54:58.520Z,17.30
2018-09-08T09:57:27.232Z,17.65
2018-09-08T09:59:56.594Z,18.09
2018-09-08T10:02:43.813Z,17.74
2018-09-08T10:05:23.109Z,16.53
2018-09-08T10:07:53.463Z,16.95
2018-09-08T10:10:25.753Z,17.48
2018-09-08T10:12:55.904Z,17.38
2018-09-08T10:15:24.870Z,16.87
2018-09-08T10:17:54.488Z,16.91
2018-09-08T10:20:23.888Z,16.78
2018-09-08T10:22:53.746Z,17.49
2018-09-08T10:25:22.763Z,16.75
2018-09-08T10:27:51.747Z,17.24
2018-09-08T10:30:22.099Z,17.81
2018-09-08T10:32:51.384Z,17.84
2018-09-08T10:35:20.528Z,18.09
2018-09-08T10:37:49.953Z,18.26
2018-09-08T10:40:19.222Z,17.76
2018-09-08T10:42:48.331Z,17.40
2018-09-08T10:45:18.371Z,17.66
2018-09-08T10:47:47.821Z,17.56
2018-09-08T10:50:16.541Z,16.06
2018-09-08T10:52:46.660Z,16.11
2018-09-08T10:55:15.452Z,15.27
2018-09-08T10:57:44.656Z,15.12
2018-09-08T11:00:16.789Z,15.94
2018-09-08T11:02:45.817Z,14.68
2018-09-08T11:05:15.354Z,14.49
2018-09-08T11:07:44.026Z,14.60
2018-09-08T11:10:12.669Z,14.83
2018-09-08T11:12:42.038Z,14.05
2018-09-08T11:15:11.356Z,13.96
2018-09-08T11:17:40.709Z,13.87
2018-09-08T11:20:09.869Z,14.54
2018-09-08T11:22:38.786Z,13.93
2018-09-08T11:25:08.143Z,14.57
2018-09-08T11:27:37.226Z,14.93
2018-09-08T11:30:07.230Z,13.98
2018-09-08T11:32:35.920Z,14.71
2018-09-08T11:35:05.383Z,15.59
2018-09-08T11:37:34.136Z,17.57
2018-09-08T11:40:03.490Z,16.33
2018-09-08T11:42:32.535Z,14.95
2018-09-08T11:45:01.511Z,14.52
2018-09-08T11:47:30.285Z,13.99
2018-09-08T11:49:59.250Z,14.19
2018-09-08T11:52:28.505Z,14.84
2018-09-08T11:54:57.379Z,15.47
2018-09-08T11:57:27.128Z,14.45
2018-09-08T11:59:55.804Z,15.09
2018-09-08T12:02:24.399Z,15.95
2018-09-08T12:04:53.809Z,14.28
2018-09-08T12:07:23.375Z,15.56
2018-09-08T12:09:52.120Z,16.33
2018-09-08T12:12:21.256Z,17.41
2018-09-08T12:14:50.491Z,20.04
2018-09-08T12:17:19.623Z,20.00
2018-09-08T12:19:48.629Z,19.94
2018-09-08T12:22:17.522Z,18.12
2018-09-08T12:24:46.311Z,16.99
2018-09-08T12:27:15.250Z,14.88
2018-09-08T12:29:44.806Z,14.58
2018-09-08T12:32:14.582Z,15.20
2018-09-08T12:34:44.239Z,15.69
2018-09-08T12:37:13.877Z,16.19
2018-09-08T12:39:42.644Z,19.18
2018-09-08T12:42:12.299Z,20.90
2018-09-08T12:44:41.196Z,20.00
2018-09-08T12:47:09.981Z,17.53
2018-09-08T12:49:39.515Z,15.79
2018-09-08T12:52:08.825Z,17.38
2018-09-08T12:54:38.266Z,18.70
2018-09-08T12:57:07.505Z,19.46
2018-09-08T12:59:36.294Z,19.23
2018-09-08T13:02:05.044Z,16.85
2018-09-08T13:04:34.004Z,15.96
2018-09-08T13:07:04.009Z,16.04
2018-09-08T13:09:32.726Z,14.60
2018-09-08T13:12:02.662Z,14.48
2018-09-08T13:14:32.374Z,14.76
2018-09-08T13:17:01.234Z,15.13
2018-09-08T13:19:30.625Z,16.06
2018-09-08T13:21:59.591Z,16.02
2018-09-08T13:24:28.381Z,16.37
2018-09-08T13:26:57.861Z,15.44
2018-09-08T13:29:27.119Z,16.42
2018-09-08T13:31:56.382Z,16.62
2018-09-08T13:34:25.531Z,16.68
2018-09-08T13:36:54.986Z,16.97
2018-09-08T13:39:24.221Z,16.17
2018-09-08T13:41:54.195Z,16.19
2018-09-08T13:44:23.174Z,14.54
2018-09-08T13:46:51.826Z,15.09
2018-09-08T13:49:20.613Z,15.26
2018-09-08T13:51:50.304Z,15.90
2018-09-08T13:54:20.932Z,16.68
2018-09-08T13:56:49.716Z,17.03
2018-09-08T13:59:18.909Z,16.94
2018-09-08T14:01:47.665Z,17.53
2018-09-08T14:04:16.560Z,18.70
2018-09-08T14:06:45.312Z,20.13
2018-09-08T14:09:14.134Z,21.90
2018-09-08T14:11:42.852Z,21.77
2018-09-08T14:14:12.125Z,22.73
2018-09-08T14:16:41.041Z,24.27
2018-09-08T14:19:09.796Z,24.74
2018-09-08T14:21:38.871Z,25.03
2018-09-08T14:24:08.020Z,26.00
2018-09-08T14:26:37.229Z,26.09
2018-09-08T14:29:06.627Z,27.03
2018-09-08T14:31:35.931Z,27.74
2018-09-08T14:34:04.920Z,27.90
2018-09-08T14:36:33.944Z,28.34
2018-09-08T14:39:03.571Z,29.29
2018-09-08T14:41:32.297Z,30.60
2018-09-08T14:44:02.850Z,30.44
2018-09-08T14:46:32.201Z,29.99
2018-09-08T14:49:00.963Z,31.06
2018-09-08T14:51:30.076Z,32.04
2018-09-08T14:53:58.877Z,31.84
2018-09-08T14:56:27.811Z,31.74
2018-09-08T14:58:57.595Z,33.32
2018-09-08T15:01:26.460Z,33.56
2018-09-08T15:03:55.234Z,32.78
2018-09-08T15:06:24.219Z,32.19
2018-09-08T15:08:53.204Z,33.15
2018-09-08T15:11:22.691Z,34.02
2018-09-08T15:13:51.790Z,35.52
2018-09-08T15:16:20.686Z,34.23
2018-09-08T15:18:49.571Z,34.23
2018-09-08T15:21:18.866Z,34.56
2018-09-08T15:23:47.635Z,34.82
2018-09-08T15:26:17.655Z,35.10
2018-09-08T15:28:46.517Z,34.52
2018-09-08T15:31:15.446Z,35.34
2018-09-08T15:33:44.723Z,35.35
2018-09-08T15:36:14.221Z,35.46
2018-09-08T15:38:43.777Z,35.75
2018-09-08T15:41:13.535Z,36.24
2018-09-08T15:43:46.059Z,36.21
2018-09-08T15:46:14.985Z,36.29
2018-09-08T15:48:43.846Z,36.56
2018-09-08T15:51:12.762Z,36.83
2018-09-08T15:53:41.858Z,37.38
2018-09-08T15:56:10.857Z,38.31
2018-09-08T15:58:40.830Z,38.14
2018-09-08T16:01:09.852Z,38.74
2018-09-08T16:03:38.537Z,39.25
2018-09-08T16:06:07.370Z,38.53
2018-09-08T16:08:36.251Z,37.78
2018-09-08T16:11:05.611Z,38.80
2018-09-08T16:13:34.811Z,39.11
2018-09-08T16:16:03.739Z,39.37
2018-09-08T16:18:33.360Z,39.97
2018-09-08T16:21:02.372Z,39.18
2018-09-08T16:23:32.170Z,41.07
2018-09-08T16:26:01.152Z,42.52
2018-09-08T16:28:31.812Z,43.16
2018-09-08T16:31:00.656Z,41.11
2018-09-08T16:33:30.697Z,41.66
2018-09-08T16:35:59.716Z,42.14
2018-09-08T16:38:29.978Z,42.74
2018-09-08T16:40:59.476Z,43.55
2018-09-08T16:43:28.488Z,45.04
2018-09-08T16:45:57.529Z,45.43
2018-09-08T16:48:26.826Z,47.47
2018-09-08T16:50:56.477Z,48.70
2018-09-08T16:53:25.360Z,49.35
2018-09-08T16:55:54.066Z,50.52
2018-09-08T16:58:22.796Z,51.65
2018-09-08T17:00:51.606Z,51.95
2018-09-08T17:03:20.456Z,52.78
2018-09-08T17:05:50.156Z,53.94
2018-09-08T17:08:19.746Z,54.34
2018-09-08T17:10:50.323Z,54.25
2018-09-08T17:13:19.088Z,54.69
2018-09-08T17:15:47.962Z,54.66
2018-09-08T17:18:18.628Z,55.47
2018-09-08T17:20:47.440Z,56.92
2018-09-08T17:23:16.286Z,57.78
2018-09-08T17:25:46.372Z,57.34
2018-09-08T17:28:15.620Z,57.43
2018-09-08T17:30:44.713Z,57.91
2018-09-08T17:33:13.984Z,58.62
2018-09-08T17:35:43.042Z,59.11
2018-09-08T17:38:11.911Z,57.88
2018-09-08T17:40:40.622Z,56.90
2018-09-08T17:43:09.341Z,57.86
2018-09-08T17:45:38.227Z,57.94
2018-09-08T17:48:08.529Z,57.00
2018-09-08T17:50:37.683Z,55.12
2018-09-08T17:53:07.028Z,54.43
2018-09-08T17:55:35.802Z,52.25
2018-09-08T17:58:04.946Z,56.00
2018-09-08T18:00:34.291Z,54.26
2018-09-08T18:03:05.099Z,54.78
2018-09-08T18:05:35.594Z,55.15
2018-09-08T18:08:05.053Z,54.05
2018-09-08T18:10:34.053Z,56.75
2018-09-08T18:13:02.962Z,56.97
2018-09-08T18:15:32.503Z,56.93
2018-09-08T18:18:01.600Z,56.48
2018-09-08T18:20:31.047Z,57.07
2018-09-08T18:23:00.153Z,57.57
2018-09-08T18:25:29.564Z,59.00
2018-09-08T18:27:58.667Z,59.99
2018-09-08T18:30:27.859Z,59.70
2018-09-08T18:32:57.192Z,59.72
2018-09-08T18:35:25.833Z,60.07
2018-09-08T18:37:54.639Z,59.75
2018-09-08T18:40:24.015Z,61.36
2018-09-08T18:42:53.002Z,62.03
2018-09-08T18:45:22.351Z,61.69
2018-09-08T18:47:51.469Z,61.84
2018-09-08T18:50:20.838Z,63.27
2018-09-08T18:52:49.607Z,64.53
2018-09-08T18:55:19.423Z,64.94
2018-09-08T18:57:49.144Z,64.40
2018-09-08T19:00:17.944Z,64.73
2018-09-08T19:02:46.938Z,65.96
2018-09-08T19:05:16.215Z,67.92
2018-09-08T19:07:45.914Z,68.83
2018-09-08T19:10:14.867Z,68.44
2018-09-08T19:12:43.737Z,69.34
2018-09-08T19:15:15.550Z,70.18
2018-09-08T19:17:45.001Z,70.71
2018-09-08T19:20:19.161Z,70.31
2018-09-08T19:22:48.836Z,71.62
2018-09-08T19:25:18.643Z,71.48
2018-09-08T19:27:48.193Z,72.14
2018-09-08T19:30:17.082Z,72.54
2018-09-08T19:32:46.804Z,73.13
2018-09-08T19:35:20.721Z,74.42
2018-09-08T19:37:50.224Z,74.91
2018-09-08T19:40:24.223Z,74.92
2018-09-08T19:42:53.240Z,75.21
2018-09-08T19:45:22.329Z,74.94
2018-09-08T19:47:57.100Z,76.05
2018-09-08T19:50:26.032Z,76.06
2018-09-08T19:52:59.903Z,76.74
2018-09-08T19:55:29.050Z,76.75
2018-09-08T19:58:02.951Z,76.55
2018-09-08T20:00:32.012Z,76.59
2018-09-08T20:03:00.903Z,77.10
2018-09-08T20:05:31.292Z,77.09
2018-09-08T20:08:00.377Z,77.32
2018-09-08T20:10:29.767Z,77.61
2018-09-08T20:13:00.232Z,78.40
2018-09-08T20:15:29.027Z,78.92
2018-09-08T20:17:58.696Z,79.37
2018-09-08T20:20:27.466Z,79.26
2018-09-08T20:22:57.972Z,80.58
2018-09-08T20:25:27.313Z,80.04
2018-09-08T20:27:56.123Z,80.23
2018-09-08T20:30:25.002Z,80.84
2018-09-08T20:32:53.863Z,81.09
2018-09-08T20:35:23.092Z,81.09
2018-09-08T20:37:53.405Z,81.07
2018-09-08T20:40:22.729Z,80.62
2018-09-08T20:42:51.734Z,80.51
2018-09-08T20:45:21.627Z,81.46
2018-09-08T20:47:51.398Z,81.89
2018-09-08T20:50:20.114Z,82.74
2018-09-08T20:52:48.912Z,83.14
2018-09-08T20:55:17.793Z,83.08
2018-09-08T20:57:47.269Z,83.12
2018-09-08T21:00:17.452Z,84.05
2018-09-08T21:02:46.402Z,83.59
2018-09-08T21:05:15.982Z,83.40
2018-09-08T21:07:44.713Z,83.92
2018-09-08T21:10:14.373Z,84.25
2018-09-08T21:12:43.099Z,84.71
2018-09-08T21:15:12.692Z,85.10
2018-09-08T21:17:42.090Z,84.99
2018-09-08T21:20:11.062Z,85.53
2018-09-08T21:22:39.839Z,85.63
2018-09-08T21:25:09.539Z,85.44
2018-09-08T21:27:38.949Z,85.77
2018-09-08T21:30:07.991Z,85.50
2018-09-08T21:32:36.928Z,85.75
2018-09-08T21:35:07.454Z,86.21
2018-09-08T21:37:36.618Z,86.72
2018-09-08T21:40:05.970Z,87.02
2018-09-08T21:42:34.660Z,87.49
2018-09-08T21:45:04.430Z,87.55
2018-09-08T21:47:33.357Z,87.45
2018-09-08T21:50:03.349Z,88.05
2018-09-08T21:52:32.134Z,87.93
2018-09-08T21:55:01.676Z,88.11
2018-09-08T21:57:30.432Z,87.92
2018-09-08T21:59:59.219Z,87.85
2018-09-08T22:02:28.126Z,87.80
2018-09-08T22:04:58.317Z,87.80
2018-09-08T22:07:30.650Z,88.07
2018-09-08T22:09:59.777Z,87.69
2018-09-08T22:12:28.660Z,87.45
2018-09-08T22:14:57.996Z,87.95
2018-09-08T22:17:26.758Z,88.08
2018-09-08T22:19:55.501Z,87.77
2018-09-08T22:22:24.177Z,87.54
2018-09-08T22:24:53.134Z,87.52
2018-09-08T22:27:22.038Z,87.79
2018-09-08T22:29:51.867Z,88.00
2018-09-08T22:32:20.608Z,87.38
2018-09-08T22:34:50.219Z,87.78
2018-09-08T22:37:18.939Z,87.88
2018-09-08T22:39:48.427Z,87.58
2018-09-08T22:42:17.273Z,87.36
2018-09-08T22:44:46.884Z,87.00
2018-09-08T22:47:15.828Z,86.79
2018-09-08T22:49:44.940Z,86.95
2018-09-08T22:52:14.399Z,86.90
2018-09-08T22:54:43.424Z,86.85
2018-09-08T22:57:12.333Z,87.58
2018-09-08T22:59:40.981Z,87.41
2018-09-08T23:02:09.808Z,87.72
2018-09-08T23:04:39.387Z,87.55
2018-09-08T23:07:08.572Z,87.81
2018-09-08T23:09:38.059Z,87.90
2018-09-08T23:12:07.399Z,87.85
2018-09-08T23:14:36.358Z,88.61
2018-09-08T23:17:06.542Z,88.64
2018-09-08T23:19:35.492Z,88.57
2018-09-08T23:22:04.854Z,88.34
2018-09-08T23:24:33.614Z,88.49
2018-09-08T23:27:02.381Z,88.90
2018-09-08T23:29:32.503Z,88.95
2018-09-08T23:32:01.473Z,89.17
2018-09-08T23:34:30.929Z,89.38
2018-09-08T23:36:59.745Z,89.53
2018-09-08T23:39:28.578Z,89.94
2018-09-08T23:41:57.367Z,90.15
2018-09-08T23:44:26.001Z,89.91
2018-09-08T23:46:56.192Z,90.73
2018-09-08T23:49:25.325Z,91.14
2018-09-08T23:51:54.514Z,91.13
2018-09-08T23:54:23.883Z,90.75
2018-09-08T23:56:52.723Z,90.74
2018-09-08T23:59:22.229Z,91.04
